sensor_id;sensor_type;location;lat;lon;timestamp;pressure;altitude;pressure_sealevel;temperature;humidity
11339;BME280;5724;42.684;23.252;2023-04-01T00:00:55;93490.97;;;13.06;46.46
11339;BME280;5724;42.684;23.252;2023-04-01T00:03:21;93482.75;;;13.13;46.08
11339;BME280;5724;42.684;23.252;2023-04-01T00:05:47;93464.34;;;13.07;45.90
11339;BME280;5724;42.684;23.252;2023-04-01T00:08:13;93483.13;;;13.23;45.66
11339;BME280;5724;42.684;23.252;2023-04-01T00:10:39;93480.38;;;13.26;45.62
11339;BME280;5724;42.684;23.252;2023-04-01T00:13:05;93478.00;;;13.28;45.29
11339;BME280;5724;42.684;23.252;2023-04-01T00:15:30;93473.31;;;13.29;45.77
11339;BME280;5724;42.684;23.252;2023-04-01T00:17:56;93489.00;;;13.25;46.36
11339;BME280;5724;42.684;23.252;2023-04-01T00:20:22;93485.47;;;13.21;48.45
11339;BME280;5724;42.684;23.252;2023-04-01T00:22:47;93482.34;;;13.01;49.44
11339;BME280;5724;42.684;23.252;2023-04-01T00:25:13;93476.50;;;12.95;51.38
11339;BME280;5724;42.684;23.252;2023-04-01T00:27:40;93475.75;;;12.70;57.27
11339;BME280;5724;42.684;23.252;2023-04-01T00:30:06;93476.13;;;12.15;60.80
11339;BME280;5724;42.684;23.252;2023-04-01T00:32:33;93446.72;;;11.72;62.72
11339;BME280;5724;42.684;23.252;2023-04-01T00:34:58;93469.63;;;11.32;64.34
11339;BME280;5724;42.684;23.252;2023-04-01T00:37:25;93463.75;;;11.23;65.06
11339;BME280;5724;42.684;23.252;2023-04-01T00:39:51;93469.94;;;11.13;65.40
11339;BME280;5724;42.684;23.252;2023-04-01T00:42:17;93458.91;;;10.95;66.40
11339;BME280;5724;42.684;23.252;2023-04-01T00:44:45;93461.25;;;10.97;66.13
11339;BME280;5724;42.684;23.252;2023-04-01T00:47:13;93458.78;;;10.74;67.52
11339;BME280;5724;42.684;23.252;2023-04-01T00:49:44;93461.84;;;10.65;68.22
11339;BME280;5724;42.684;23.252;2023-04-01T00:52:13;93457.00;;;10.41;68.86
11339;BME280;5724;42.684;23.252;2023-04-01T00:54:41;93442.53;;;10.37;68.75
11339;BME280;5724;42.684;23.252;2023-04-01T00:59:53;93440.03;;;10.21;69.89
11339;BME280;5724;42.684;23.252;2023-04-01T01:02:22;93433.41;;;10.18;70.13
11339;BME280;5724;42.684;23.252;2023-04-01T01:04:48;93416.13;;;10.03;70.96
11339;BME280;5724;42.684;23.252;2023-04-01T01:21:16;93414.00;;;9.83;71.76
11339;BME280;5724;42.684;23.252;2023-04-01T01:34:55;93384.78;;;9.83;71.38
11339;BME280;5724;42.684;23.252;2023-04-01T01:37:25;93392.53;;;9.78;71.58
11339;BME280;5724;42.684;23.252;2023-04-01T01:39:56;93389.03;;;9.81;70.96
11339;BME280;5724;42.684;23.252;2023-04-01T01:42:25;93392.16;;;9.83;70.60
11339;BME280;5724;42.684;23.252;2023-04-01T01:44:52;93391.06;;;9.91;70.46
11339;BME280;5724;42.684;23.252;2023-04-01T01:47:19;93394.16;;;9.86;70.49
11339;BME280;5724;42.684;23.252;2023-04-01T01:49:47;93389.50;;;9.90;69.93
11339;BME280;5724;42.684;23.252;2023-04-01T01:52:13;93394.09;;;9.79;70.05
11339;BME280;5724;42.684;23.252;2023-04-01T01:54:53;93378.91;;;9.78;69.91
11339;BME280;5724;42.684;23.252;2023-04-01T01:57:23;93379.31;;;9.83;68.96
11339;BME280;5724;42.684;23.252;2023-04-01T01:59:53;93379.41;;;9.94;68.58
11339;BME280;5724;42.684;23.252;2023-04-01T02:02:19;93375.47;;;9.91;68.50
11339;BME280;5724;42.684;23.252;2023-04-01T02:04:46;93373.97;;;9.97;68.73
11339;BME280;5724;42.684;23.252;2023-04-01T02:07:32;93371.28;;;10.01;68.10
11339;BME280;5724;42.684;23.252;2023-04-01T02:09:59;93359.19;;;10.02;68.00
11339;BME280;5724;42.684;23.252;2023-04-01T02:12:26;93372.88;;;10.06;68.20
11339;BME280;5724;42.684;23.252;2023-04-01T02:15:04;93363.47;;;10.03;67.89
11339;BME280;5724;42.684;23.252;2023-04-01T02:17:32;93358.00;;;9.96;68.20
11339;BME280;5724;42.684;23.252;2023-04-01T02:20:22;93355.28;;;9.99;68.41
11339;BME280;5724;42.684;23.252;2023-04-01T02:22:52;93340.41;;;9.90;68.57
11339;BME280;5724;42.684;23.252;2023-04-01T02:25:30;93364.25;;;10.03;68.58
11339;BME280;5724;42.684;23.252;2023-04-01T02:27:59;93356.81;;;9.97;67.88
11339;BME280;5724;42.684;23.252;2023-04-01T02:30:29;93375.53;;;9.95;68.08
11339;BME280;5724;42.684;23.252;2023-04-01T02:32:57;93376.31;;;9.95;68.38
11339;BME280;5724;42.684;23.252;2023-04-01T02:35:24;93369.31;;;9.98;68.93
11339;BME280;5724;42.684;23.252;2023-04-01T02:37:52;93374.03;;;10.04;68.30
11339;BME280;5724;42.684;23.252;2023-04-01T02:40:18;93367.00;;;10.03;68.16
11339;BME280;5724;42.684;23.252;2023-04-01T02:42:44;93367.84;;;10.11;67.04
11339;BME280;5724;42.684;23.252;2023-04-01T02:45:11;93370.09;;;10.02;66.36
11339;BME280;5724;42.684;23.252;2023-04-01T02:47:36;93377.22;;;10.14;66.09
11339;BME280;5724;42.684;23.252;2023-04-01T02:50:02;93372.97;;;10.20;65.09
11339;BME280;5724;42.684;23.252;2023-04-01T02:52:29;93389.72;;;10.18;64.25
11339;BME280;5724;42.684;23.252;2023-04-01T02:54:55;93388.97;;;10.21;64.25
11339;BME280;5724;42.684;23.252;2023-04-01T02:57:21;93381.16;;;10.20;62.59
11339;BME280;5724;42.684;23.252;2023-04-01T02:59:47;93393.72;;;10.28;63.56
11339;BME280;5724;42.684;23.252;2023-04-01T03:02:13;93374.13;;;10.15;60.98
11339;BME280;5724;42.684;23.252;2023-04-01T03:04:39;93378.13;;;10.32;60.78
11339;BME280;5724;42.684;23.252;2023-04-01T03:07:04;93389.22;;;10.57;56.65
11339;BME280;5724;42.684;23.252;2023-04-01T03:09:30;93398.00;;;10.91;53.63
11339;BME280;5724;42.684;23.252;2023-04-01T03:11:56;93382.84;;;11.18;50.78
11339;BME280;5724;42.684;23.252;2023-04-01T03:14:21;93393.13;;;11.61;49.39
11339;BME280;5724;42.684;23.252;2023-04-01T03:16:47;93399.44;;;11.83;49.45
11339;BME280;5724;42.684;23.252;2023-04-01T03:19:12;93395.97;;;12.07;48.57
11339;BME280;5724;42.684;23.252;2023-04-01T03:21:37;93406.09;;;12.14;49.47
11339;BME280;5724;42.684;23.252;2023-04-01T03:24:03;93409.25;;;12.12;51.21
11339;BME280;5724;42.684;23.252;2023-04-01T03:26:29;93416.28;;;12.10;52.95
11339;BME280;5724;42.684;23.252;2023-04-01T03:28:55;93406.09;;;11.96;55.17
11339;BME280;5724;42.684;23.252;2023-04-01T03:31:20;93409.22;;;11.80;57.68
11339;BME280;5724;42.684;23.252;2023-04-01T03:33:46;93394.31;;;11.74;58.55
11339;BME280;5724;42.684;23.252;2023-04-01T03:36:11;93388.81;;;11.67;59.94
11339;BME280;5724;42.684;23.252;2023-04-01T03:38:41;93354.44;;;11.52;59.47
11339;BME280;5724;42.684;23.252;2023-04-01T03:41:10;93361.47;;;11.53;59.82
11339;BME280;5724;42.684;23.252;2023-04-01T03:43:36;93346.63;;;11.54;61.15
11339;BME280;5724;42.684;23.252;2023-04-01T03:46:01;93328.63;;;11.56;58.83
11339;BME280;5724;42.684;23.252;2023-04-01T03:48:27;93324.34;;;11.62;59.53
11339;BME280;5724;42.684;23.252;2023-04-01T03:50:52;93322.81;;;11.68;60.35
11339;BME280;5724;42.684;23.252;2023-04-01T03:53:18;93315.34;;;11.76;61.59
11339;BME280;5724;42.684;23.252;2023-04-01T03:55:43;93295.81;;;11.67;62.64
11339;BME280;5724;42.684;23.252;2023-04-01T03:58:09;93290.34;;;11.60;63.48
11339;BME280;5724;42.684;23.252;2023-04-01T04:00:35;93282.53;;;11.40;65.40
11339;BME280;5724;42.684;23.252;2023-04-01T04:03:01;93278.97;;;11.26;66.19
11339;BME280;5724;42.684;23.252;2023-04-01T04:05:27;93297.34;;;11.29;67.30
11339;BME280;5724;42.684;23.252;2023-04-01T04:07:53;93293.81;;;11.25;67.48
11339;BME280;5724;42.684;23.252;2023-04-01T04:10:19;93285.56;;;11.00;69.79
11339;BME280;5724;42.684;23.252;2023-04-01T04:12:45;93274.22;;;10.83;69.34
11339;BME280;5724;42.684;23.252;2023-04-01T04:15:11;93276.72;;;10.30;69.70
11339;BME280;5724;42.684;23.252;2023-04-01T04:17:37;93270.88;;;10.31;69.75
11339;BME280;5724;42.684;23.252;2023-04-01T04:20:03;93273.22;;;10.26;70.71
11339;BME280;5724;42.684;23.252;2023-04-01T04:22:29;93264.19;;;10.22;70.56
11339;BME280;5724;42.684;23.252;2023-04-01T04:24:54;93276.66;;;10.19;70.42
11339;BME280;5724;42.684;23.252;2023-04-01T04:27:20;93273.91;;;10.16;72.54
11339;BME280;5724;42.684;23.252;2023-04-01T04:29:45;93265.72;;;10.19;72.52
11339;BME280;5724;42.684;23.252;2023-04-01T04:32:11;93265.34;;;10.17;71.45
11339;BME280;5724;42.684;23.252;2023-04-01T04:34:36;93269.69;;;10.25;71.47
11339;BME280;5724;42.684;23.252;2023-04-01T04:37:02;93261.38;;;10.08;71.59
11339;BME280;5724;42.684;23.252;2023-04-01T04:39:27;93246.53;;;9.98;71.37
11339;BME280;5724;42.684;23.252;2023-04-01T04:41:53;93247.28;;;9.98;72.15
11339;BME280;5724;42.684;23.252;2023-04-01T04:44:18;93228.91;;;9.85;72.37
11339;BME280;5724;42.684;23.252;2023-04-01T04:46:44;93238.78;;;10.11;71.81
11339;BME280;5724;42.684;23.252;2023-04-01T04:49:09;93234.44;;;10.02;71.83
11339;BME280;5724;42.684;23.252;2023-04-01T04:51:35;93209.50;;;10.00;71.17
11339;BME280;5724;42.684;23.252;2023-04-01T04:54:04;93224.31;;;10.03;70.74
11339;BME280;5724;42.684;23.252;2023-04-01T04:56:30;93226.69;;;10.04;71.19
11339;BME280;5724;42.684;23.252;2023-04-01T04:58:57;93230.19;;;10.09;71.74
11339;BME280;5724;42.684;23.252;2023-04-01T05:01:22;93227.03;;;10.03;72.36
11339;BME280;5724;42.684;23.252;2023-04-01T05:03:48;93213.34;;;9.89;72.65
11339;BME280;5724;42.684;23.252;2023-04-01T05:06:15;93215.16;;;9.67;73.80
11339;BME280;5724;42.684;23.252;2023-04-01T05:08:42;93222.53;;;9.63;73.39
11339;BME280;5724;42.684;23.252;2023-04-01T05:11:18;93205.38;;;9.59;74.60
11339;BME280;5724;42.684;23.252;2023-04-01T05:13:44;93205.38;;;9.59;75.63
11339;BME280;5724;42.684;23.252;2023-04-01T05:16:15;93204.16;;;9.53;75.71
11339;BME280;5724;42.684;23.252;2023-04-01T05:18:42;93181.22;;;9.57;75.67
11339;BME280;5724;42.684;23.252;2023-04-01T05:21:09;93188.19;;;9.51;75.79
11339;BME280;5724;42.684;23.252;2023-04-01T05:23:35;93185.84;;;9.53;74.83
11339;BME280;5724;42.684;23.252;2023-04-01T05:26:05;93186.53;;;9.39;75.83
11339;BME280;5724;42.684;23.252;2023-04-01T05:28:31;93179.94;;;9.40;75.01
11339;BME280;5724;42.684;23.252;2023-04-01T05:31:01;93181.31;;;9.16;74.13
11339;BME280;5724;42.684;23.252;2023-04-01T05:33:27;93194.25;;;9.27;74.73
11339;BME280;5724;42.684;23.252;2023-04-01T05:35:54;93153.38;;;9.27;74.60
11339;BME280;5724;42.684;23.252;2023-04-01T05:38:19;93189.28;;;9.39;73.70
11339;BME280;5724;42.684;23.252;2023-04-01T05:40:45;93185.91;;;9.60;74.99
11339;BME280;5724;42.684;23.252;2023-04-01T05:43:11;93175.38;;;9.59;72.13
11339;BME280;5724;42.684;23.252;2023-04-01T05:45:36;93184.50;;;9.88;69.64
11339;BME280;5724;42.684;23.252;2023-04-01T05:48:02;93190.03;;;10.09;70.59
11339;BME280;5724;42.684;23.252;2023-04-01T05:50:28;93175.31;;;10.31;69.34
11339;BME280;5724;42.684;23.252;2023-04-01T05:52:53;93163.31;;;10.57;68.88
11339;BME280;5724;42.684;23.252;2023-04-01T05:55:19;93171.56;;;10.82;68.85
11339;BME280;5724;42.684;23.252;2023-04-01T05:57:45;93162.59;;;11.10;65.95
11339;BME280;5724;42.684;23.252;2023-04-01T06:00:12;93163.75;;;11.24;64.94
11339;BME280;5724;42.684;23.252;2023-04-01T06:02:38;93180.13;;;11.63;64.54
11339;BME280;5724;42.684;23.252;2023-04-01T06:07:36;93162.09;;;11.97;62.47
11339;BME280;5724;42.684;23.252;2023-04-01T06:10:10;93164.41;;;12.06;60.95
11339;BME280;5724;42.684;23.252;2023-04-01T06:12:50;93166.75;;;12.04;60.59
11339;BME280;5724;42.684;23.252;2023-04-01T06:15:24;93159.31;;;12.12;61.79
11339;BME280;5724;42.684;23.252;2023-04-01T06:18:00;93177.69;;;12.11;61.19
11339;BME280;5724;42.684;23.252;2023-04-01T06:20:54;93177.59;;;12.36;60.78
11339;BME280;5724;42.684;23.252;2023-04-01T06:31:51;93148.69;;;12.28;60.29
11339;BME280;5724;42.684;23.252;2023-04-01T06:43:03;93141.53;;;12.45;57.89
11339;BME280;5724;42.684;23.252;2023-04-01T06:48:37;93135.69;;;12.46;57.40
11339;BME280;5724;42.684;23.252;2023-04-01T06:56:05;93123.53;;;12.44;58.07
11339;BME280;5724;42.684;23.252;2023-04-01T06:59:22;93105.53;;;12.46;57.48
11339;BME280;5724;42.684;23.252;2023-04-01T07:01:34;93106.28;;;12.50;57.30
11339;BME280;5724;42.684;23.252;2023-04-01T07:04:06;93125.50;;;12.47;56.87
11339;BME280;5724;42.684;23.252;2023-04-01T07:06:39;93119.75;;;12.23;57.96
11339;BME280;5724;42.684;23.252;2023-04-01T07:09:11;93120.56;;;12.13;58.34
11339;BME280;5724;42.684;23.252;2023-04-01T07:11:38;93131.06;;;12.25;58.04
11339;BME280;5724;42.684;23.252;2023-04-01T07:16:59;93124.31;;;12.48;58.39
11339;BME280;5724;42.684;23.252;2023-04-01T07:19:33;93127.41;;;12.53;57.78
11339;BME280;5724;42.684;23.252;2023-04-01T07:22:03;93126.63;;;12.56;58.25
11339;BME280;5724;42.684;23.252;2023-04-01T07:24:36;93128.31;;;12.29;58.30
11339;BME280;5724;42.684;23.252;2023-04-01T07:27:05;93135.72;;;12.32;59.09
11339;BME280;5724;42.684;23.252;2023-04-01T07:29:33;93121.16;;;12.49;58.84
11339;BME280;5724;42.684;23.252;2023-04-01T07:43:25;93133.59;;;11.73;62.53
11339;BME280;5724;42.684;23.252;2023-04-01T07:48:35;93121.41;;;11.99;63.50
11339;BME280;5724;42.684;23.252;2023-04-01T07:51:25;93120.25;;;12.00;62.26
11339;BME280;5724;42.684;23.252;2023-04-01T07:54:08;93127.66;;;12.07;62.12
11339;BME280;5724;42.684;23.252;2023-04-01T08:04:51;93100.16;;;12.25;61.57
11339;BME280;5724;42.684;23.252;2023-04-01T08:10:32;93094.56;;;12.50;61.23
11339;BME280;5724;42.684;23.252;2023-04-01T08:15:55;93085.94;;;12.55;59.53
11339;BME280;5724;42.684;23.252;2023-04-01T08:21:28;93071.81;;;12.56;59.64
11339;BME280;5724;42.684;23.252;2023-04-01T08:24:04;93064.91;;;12.38;60.72
11339;BME280;5724;42.684;23.252;2023-04-01T08:26:37;93065.94;;;12.54;60.82
11339;BME280;5724;42.684;23.252;2023-04-01T08:29:13;93063.09;;;12.69;60.70
11339;BME280;5724;42.684;23.252;2023-04-01T08:31:51;93040.22;;;12.89;60.21
11339;BME280;5724;42.684;23.252;2023-04-01T08:34:24;93026.78;;;13.02;59.89
11339;BME280;5724;42.684;23.252;2023-04-01T08:37:00;93032.91;;;13.58;58.65
11339;BME280;5724;42.684;23.252;2023-04-01T08:39:37;93015.66;;;13.92;58.11
11339;BME280;5724;42.684;23.252;2023-04-01T08:45:31;93026.19;;;14.24;56.63
11339;BME280;5724;42.684;23.252;2023-04-01T09:05:26;93016.94;;;15.15;48.49
11339;BME280;5724;42.684;23.252;2023-04-01T09:11:11;92999.94;;;14.77;50.35
11339;BME280;5724;42.684;23.252;2023-04-01T09:23:15;92989.22;;;15.06;44.15
11339;BME280;5724;42.684;23.252;2023-04-01T09:27:04;92984.88;;;15.28;40.47
11339;BME280;5724;42.684;23.252;2023-04-01T09:32:01;92966.97;;;15.60;39.86
11339;BME280;5724;42.684;23.252;2023-04-01T09:34:51;92960.91;;;15.68;39.49
11339;BME280;5724;42.684;23.252;2023-04-01T09:37:21;92960.84;;;15.72;39.25
11339;BME280;5724;42.684;23.252;2023-04-01T09:40:18;92955.97;;;15.80;40.28
11339;BME280;5724;42.684;23.252;2023-04-01T09:46:02;92928.66;;;16.05;40.16
11339;BME280;5724;42.684;23.252;2023-04-01T09:51:58;92917.50;;;16.45;38.63
11339;BME280;5724;42.684;23.252;2023-04-01T09:57:41;92915.09;;;16.63;38.95
11339;BME280;5724;42.684;23.252;2023-04-01T10:19:09;92867.63;;;16.55;38.48
11339;BME280;5724;42.684;23.252;2023-04-01T10:22:17;92870.00;;;16.86;38.42
11339;BME280;5724;42.684;23.252;2023-04-01T10:27:58;92863.38;;;17.12;37.34
11339;BME280;5724;42.684;23.252;2023-04-01T10:33:24;92874.59;;;17.34;37.37
11339;BME280;5724;42.684;23.252;2023-04-01T10:42:03;92859.53;;;17.52;37.69
11339;BME280;5724;42.684;23.252;2023-04-01T10:55:58;92840.22;;;17.23;37.65
11339;BME280;5724;42.684;23.252;2023-04-01T10:58:53;92838.38;;;17.32;37.81
11339;BME280;5724;42.684;23.252;2023-04-01T11:10:14;92833.38;;;17.14;38.71
11339;BME280;5724;42.684;23.252;2023-04-01T11:12:30;92830.16;;;17.16;38.70
11339;BME280;5724;42.684;23.252;2023-04-01T11:26:07;92878.66;;;16.23;41.50
11339;BME280;5724;42.684;23.252;2023-04-01T11:28:45;92905.31;;;15.93;44.09
11339;BME280;5724;42.684;23.252;2023-04-01T11:31:34;92901.69;;;15.40;47.74
11339;BME280;5724;42.684;23.252;2023-04-01T11:37:29;92937.56;;;15.13;50.44
11339;BME280;5724;42.684;23.252;2023-04-01T11:50:23;93082.16;;;11.01;86.55
11339;BME280;5724;42.684;23.252;2023-04-01T11:58:31;93084.50;;;10.74;90.06
11339;BME280;5724;42.684;23.252;2023-04-01T12:04:00;93084.88;;;10.44;93.25
11339;BME280;5724;42.684;23.252;2023-04-01T12:07:06;93096.56;;;10.37;93.81
11339;BME280;5724;42.684;23.252;2023-04-01T12:15:58;93056.78;;;10.29;95.51
11339;BME280;5724;42.684;23.252;2023-04-01T12:18:38;93055.63;;;10.48;96.17
11339;BME280;5724;42.684;23.252;2023-04-01T12:24:29;93059.91;;;10.77;99.22
11339;BME280;5724;42.684;23.252;2023-04-01T12:29:53;93072.78;;;10.80;95.52
11339;BME280;5724;42.684;23.252;2023-04-01T12:40:31;93072.00;;;10.41;93.21
11339;BME280;5724;42.684;23.252;2023-04-01T13:07:36;93005.31;;;10.38;94.57
11339;BME280;5724;42.684;23.252;2023-04-01T13:12:42;92981.91;;;10.48;98.91
11339;BME280;5724;42.684;23.252;2023-04-01T13:15:24;92995.94;;;10.53;93.56
11339;BME280;5724;42.684;23.252;2023-04-01T13:20:54;93000.59;;;10.85;91.59
11339;BME280;5724;42.684;23.252;2023-04-01T13:26:34;92986.03;;;11.27;88.57
11339;BME280;5724;42.684;23.252;2023-04-01T13:29:14;92989.53;;;11.31;84.55
11339;BME280;5724;42.684;23.252;2023-04-01T13:43:15;92942.63;;;12.58;76.19
11339;BME280;5724;42.684;23.252;2023-04-01T13:51:05;92932.06;;;12.98;69.35
11339;BME280;5724;42.684;23.252;2023-04-01T14:04:50;92917.16;;;13.67;62.83
11339;BME280;5724;42.684;23.252;2023-04-01T14:15:52;92909.25;;;14.50;63.70
11339;BME280;5724;42.684;23.252;2023-04-01T14:18:53;92906.50;;;14.50;60.93
11339;BME280;5724;42.684;23.252;2023-04-01T14:21:32;92898.88;;;14.34;60.02
11339;BME280;5724;42.684;23.252;2023-04-01T14:27:05;92886.91;;;13.97;59.68
11339;BME280;5724;42.684;23.252;2023-04-01T14:35:39;92837.31;;;14.31;58.93
11339;BME280;5724;42.684;23.252;2023-04-01T14:38:21;92861.31;;;14.74;58.45
11339;BME280;5724;42.684;23.252;2023-04-01T14:49:37;92865.00;;;15.07;54.81
11339;BME280;5724;42.684;23.252;2023-04-01T14:52:28;92865.34;;;15.29;54.87
11339;BME280;5724;42.684;23.252;2023-04-01T14:54:57;92864.22;;;15.27;55.16
11339;BME280;5724;42.684;23.252;2023-04-01T14:57:30;92859.34;;;14.95;55.42
11339;BME280;5724;42.684;23.252;2023-04-01T15:00:14;92864.56;;;14.69;56.94
11339;BME280;5724;42.684;23.252;2023-04-01T15:08:26;92858.31;;;13.68;60.87
11339;BME280;5724;42.684;23.252;2023-04-01T15:19:04;92884.94;;;13.44;58.43
11339;BME280;5724;42.684;23.252;2023-04-01T15:24:24;92882.34;;;13.30;58.26
11339;BME280;5724;42.684;23.252;2023-04-01T15:42:34;92921.22;;;13.25;58.85
11339;BME280;5724;42.684;23.252;2023-04-01T15:47:52;93051.72;;;10.24;73.47
11339;BME280;5724;42.684;23.252;2023-04-01T15:50:26;93150.72;;;9.37;77.83
11339;BME280;5724;42.684;23.252;2023-04-01T15:53:08;93170.53;;;8.83;81.40
11339;BME280;5724;42.684;23.252;2023-04-01T16:11:40;93215.41;;;6.63;100.00
11339;BME280;5724;42.684;23.252;2023-04-01T16:14:27;93207.97;;;6.60;100.00
11339;BME280;5724;42.684;23.252;2023-04-01T16:22:52;93191.94;;;6.74;100.00
11339;BME280;5724;42.684;23.252;2023-04-01T16:25:32;93190.44;;;6.77;100.00
11339;BME280;5724;42.684;23.252;2023-04-01T16:28:13;93199.78;;;6.79;100.00
11339;BME280;5724;42.684;23.252;2023-04-01T16:30:55;93192.06;;;6.81;100.00
11339;BME280;5724;42.684;23.252;2023-04-01T16:33:41;93190.50;;;6.80;100.00
11339;BME280;5724;42.684;23.252;2023-04-01T16:38:45;93210.66;;;6.79;100.00
11339;BME280;5724;42.684;23.252;2023-04-01T16:41:24;93220.41;;;6.84;100.00
11339;BME280;5724;42.684;23.252;2023-04-01T16:43:56;93220.06;;;6.85;100.00
11339;BME280;5724;42.684;23.252;2023-04-01T16:46:29;93226.31;;;6.89;100.00
11339;BME280;5724;42.684;23.252;2023-04-01T16:56:54;93248.59;;;6.99;100.00
11339;BME280;5724;42.684;23.252;2023-04-01T16:59:34;93247.41;;;6.96;100.00
11339;BME280;5724;42.684;23.252;2023-04-01T17:21:58;93279.91;;;6.93;100.00
11339;BME280;5724;42.684;23.252;2023-04-01T17:32:34;93280.66;;;6.70;100.00
11339;BME280;5724;42.684;23.252;2023-04-01T17:37:45;93272.47;;;6.67;100.00
11339;BME280;5724;42.684;23.252;2023-04-01T17:40:54;93274.25;;;6.59;100.00
11339;BME280;5724;42.684;23.252;2023-04-01T17:52:42;93277.41;;;6.42;100.00
11339;BME280;5724;42.684;23.252;2023-04-01T17:57:50;93286.69;;;6.41;100.00
11339;BME280;5724;42.684;23.252;2023-04-01T18:03:25;93303.03;;;6.44;99.66
11339;BME280;5724;42.684;23.252;2023-04-01T18:09:08;93320.41;;;6.59;98.01
11339;BME280;5724;42.684;23.252;2023-04-01T18:22:34;93343.03;;;6.47;100.00
11339;BME280;5724;42.684;23.252;2023-04-01T18:27:39;93358.41;;;6.59;100.00
11339;BME280;5724;42.684;23.252;2023-04-01T18:30:16;93367.53;;;6.51;100.00
11339;BME280;5724;42.684;23.252;2023-04-01T18:32:55;93362.03;;;6.47;100.00
11339;BME280;5724;42.684;23.252;2023-04-01T18:38:23;93358.97;;;6.49;100.00
11339;BME280;5724;42.684;23.252;2023-04-01T18:43:48;93349.31;;;6.51;100.00
11339;BME280;5724;42.684;23.252;2023-04-01T18:46:38;93352.53;;;6.57;98.99
11339;BME280;5724;42.684;23.252;2023-04-01T18:49:27;93352.66;;;6.64;98.22
11339;BME280;5724;42.684;23.252;2023-04-01T18:52:04;93354.69;;;6.67;96.85
11339;BME280;5724;42.684;23.252;2023-04-01T18:57:14;93359.94;;;6.79;95.86
11339;BME280;5724;42.684;23.252;2023-04-01T19:02:33;93356.38;;;6.75;97.25
11339;BME280;5724;42.684;23.252;2023-04-01T19:07:42;93368.03;;;6.76;97.25
11339;BME280;5724;42.684;23.252;2023-04-01T19:15:44;93382.66;;;6.71;96.16
11339;BME280;5724;42.684;23.252;2023-04-01T19:37:45;93408.41;;;6.77;91.35
11339;BME280;5724;42.684;23.252;2023-04-01T19:40:43;93423.81;;;6.73;91.54
11339;BME280;5724;42.684;23.252;2023-04-01T19:45:51;93437.03;;;6.75;92.27
11339;BME280;5724;42.684;23.252;2023-04-01T19:51:43;93406.75;;;6.73;91.64
11339;BME280;5724;42.684;23.252;2023-04-01T20:04:45;93425.25;;;6.86;90.11
11339;BME280;5724;42.684;23.252;2023-04-01T20:13:20;93411.09;;;6.97;85.72
11339;BME280;5724;42.684;23.252;2023-04-01T20:15:44;93414.59;;;6.97;84.96
11339;BME280;5724;42.684;23.252;2023-04-01T20:18:20;93447.47;;;6.92;83.36
11339;BME280;5724;42.684;23.252;2023-04-01T20:23:45;93418.09;;;6.98;82.70
11339;BME280;5724;42.684;23.252;2023-04-01T20:26:21;93400.25;;;6.97;82.63
11339;BME280;5724;42.684;23.252;2023-04-01T20:36:36;93414.66;;;7.01;80.91
11339;BME280;5724;42.684;23.252;2023-04-01T20:39:31;93411.59;;;7.02;80.58
11339;BME280;5724;42.684;23.252;2023-04-01T20:48:31;93419.88;;;7.09;79.90
11339;BME280;5724;42.684;23.252;2023-04-01T20:51:16;93410.53;;;7.07;79.32
11339;BME280;5724;42.684;23.252;2023-04-01T21:04:51;93443.97;;;7.11;78.28
11339;BME280;5724;42.684;23.252;2023-04-01T21:15:46;93433.03;;;7.07;78.39
11339;BME280;5724;42.684;23.252;2023-04-01T22:17:54;93453.91;;;7.03;77.08
11339;BME280;5724;42.684;23.252;2023-04-01T22:20:50;93431.03;;;7.04;77.44
11339;BME280;5724;42.684;23.252;2023-04-01T22:23:45;93425.53;;;7.01;77.28
11339;BME280;5724;42.684;23.252;2023-04-01T22:26:52;93423.69;;;7.05;77.04
11339;BME280;5724;42.684;23.252;2023-04-01T22:30:17;93436.81;;;7.03;75.96
11339;BME280;5724;42.684;23.252;2023-04-01T22:33:05;93438.16;;;7.12;76.18
11339;BME280;5724;42.684;23.252;2023-04-01T22:35:55;93446.63;;;7.07;76.04
11339;BME280;5724;42.684;23.252;2023-04-01T22:43:42;93459.91;;;7.12;75.63
11339;BME280;5724;42.684;23.252;2023-04-01T22:48:42;93459.91;;;7.12;74.97
11339;BME280;5724;42.684;23.252;2023-04-01T22:51:23;93467.25;;;7.12;75.20
11339;BME280;5724;42.684;23.252;2023-04-01T22:54:02;93459.31;;;7.03;75.22
11339;BME280;5724;42.684;23.252;2023-04-01T22:56:35;93467.94;;;7.05;75.11
11339;BME280;5724;42.684;23.252;2023-04-01T22:59:17;93467.19;;;7.08;75.24
11339;BME280;5724;42.684;23.252;2023-04-01T23:01:50;93476.28;;;7.16;74.33
11339;BME280;5724;42.684;23.252;2023-04-01T23:04:20;93473.63;;;7.20;75.13
11339;BME280;5724;42.684;23.252;2023-04-01T23:06:51;93479.13;;;7.23;74.78
11339;BME280;5724;42.684;23.252;2023-04-01T23:09:27;93486.94;;;7.25;74.53
11339;BME280;5724;42.684;23.252;2023-04-01T23:12:11;93471.47;;;7.09;75.17
11339;BME280;5724;42.684;23.252;2023-04-01T23:14:39;93484.69;;;7.11;75.13
11339;BME280;5724;42.684;23.252;2023-04-01T23:19:59;93482.34;;;7.09;75.45
11339;BME280;5724;42.684;23.252;2023-04-01T23:22:34;93481.84;;;7.04;75.87
11339;BME280;5724;42.684;23.252;2023-04-01T23:25:16;93478.53;;;6.95;76.04
11339;BME280;5724;42.684;23.252;2023-04-01T23:27:59;93473.56;;;6.97;76.01
11339;BME280;5724;42.684;23.252;2023-04-01T23:33:30;93483.66;;;6.96;75.81
11339;BME280;5724;42.684;23.252;2023-04-01T23:36:09;93484.78;;;6.95;75.44
11339;BME280;5724;42.684;23.252;2023-04-01T23:38:40;93481.56;;;6.89;75.64
11339;BME280;5724;42.684;23.252;2023-04-01T23:41:09;93477.69;;;6.91;75.15
11339;BME280;5724;42.684;23.252;2023-04-01T23:43:43;93477.06;;;6.97;75.07
11339;BME280;5724;42.684;23.252;2023-04-01T23:46:12;93473.22;;;6.98;74.51
11339;BME280;5724;42.684;23.252;2023-04-01T23:48:41;93465.31;;;6.93;75.18
11339;BME280;5724;42.684;23.252;2023-04-01T23:51:26;93470.84;;;6.97;74.61
11339;BME280;5724;42.684;23.252;2023-04-01T23:54:19;93477.50;;;6.99;74.73
11339;BME280;5724;42.684;23.252;2023-04-01T23:56:54;93462.69;;;6.97;73.84
11339;BME280;5724;42.684;23.252;2023-04-01T23:59:33;93468.25;;;7.04;73.93
